KSQI/SQI METAR and TAF weather

Enter ICAO airport designator
Station Type Date Time Source
KSQI METAR 2022/05/23 13:56 UTC NOAA

KSQI 231356Z AUTO 11009KT 10SM CLR 13/05 A3036 RMK AO2 SLP144 T01330050


Station Type Date Time Source
KSQI Decoded METAR 2022/05/23 13:56 UTC NOAA

Sterling Rockfalls, IL, United States (KSQI) 41-45N 089-40W
May 23, 2022 - 09:56 AM EDT / 2022.05.23 1356 UTC
Wind: from the ESE (110 degrees) at 10 MPH (9 KT):0
Visibility: 10 mile(s):0
Sky conditions: clear
Temperature: 55.9 F (13.3 C)
Dew Point: 41.0 F (5.0 C)
Relative Humidity: 57%
Pressure (altimeter): 30.36 in. Hg (1028 hPa)
ob: KSQI 231356Z AUTO 11009KT 10SM CLR 13/05 A3036 RMK AO2 SLP144 T01330050
cycle: 14

Station Type Date Time Source
KSQI TAF UTC NOAA

Error!

Example: see airport list